createdAt,value
2019-03-28T00:01:52.790Z,100215.39
2019-03-28T00:03:57.042Z,100214.88
2019-03-28T00:06:01.301Z,100217.72
2019-03-28T00:08:05.717Z,100209.23
2019-03-28T00:10:10.236Z,100210.27
2019-03-28T00:12:15.116Z,100212.31
2019-03-28T00:14:19.409Z,100216.26
2019-03-28T00:16:23.744Z,100213.41
2019-03-28T00:18:28.255Z,100210.56
2019-03-28T00:20:32.508Z,100206.87
2019-03-28T00:22:47.508Z,100210.19
2019-03-28T00:24:59.532Z,100216.00
2019-03-28T00:27:03.790Z,100214.08
2019-03-28T00:29:08.034Z,100214.67
2019-03-28T00:31:12.326Z,100210.98
2019-03-28T00:33:16.554Z,100212.58
2019-03-28T00:35:20.813Z,100211.30
2019-03-28T00:37:25.053Z,100210.91
2019-03-28T00:39:29.310Z,100210.17
2019-03-28T00:41:33.594Z,100209.77
2019-03-28T00:43:37.836Z,100215.06
2019-03-28T00:45:44.933Z,100215.31
2019-03-28T00:47:49.241Z,100212.33
2019-03-28T00:49:53.523Z,100214.44
2019-03-28T00:51:57.778Z,100211.99
2019-03-28T00:54:02.027Z,100206.80
2019-03-28T00:56:06.373Z,100205.17
2019-03-28T00:58:10.633Z,100205.91
2019-03-28T01:00:15.885Z,100213.27
2019-03-28T01:02:20.228Z,100210.63
2019-03-28T01:04:24.499Z,100213.50
2019-03-28T01:06:28.823Z,100209.13
2019-03-28T01:08:33.060Z,100209.30
2019-03-28T01:10:37.375Z,100205.43
2019-03-28T01:12:41.709Z,100207.66
2019-03-28T01:14:45.973Z,100203.69
2019-03-28T01:16:50.242Z,100203.95
2019-03-28T01:18:54.518Z,100205.61
2019-03-28T01:20:58.941Z,100205.24
2019-03-28T01:23:03.214Z,100204.67
2019-03-28T01:25:07.648Z,100206.23
2019-03-28T01:27:11.879Z,100206.26
2019-03-28T01:29:16.129Z,100205.81
2019-03-28T01:31:20.397Z,100211.26
2019-03-28T01:33:24.942Z,100209.77
2019-03-28T01:35:29.179Z,100205.11
2019-03-28T01:37:33.413Z,100200.25
2019-03-28T01:39:37.823Z,100204.68
2019-03-28T01:41:42.082Z,100203.20
2019-03-28T01:43:46.304Z,100212.80
2019-03-28T01:45:51.000Z,100214.97
2019-03-28T01:47:55.241Z,100210.17
2019-03-28T01:49:59.482Z,100214.53
2019-03-28T01:52:04.370Z,100208.46
2019-03-28T01:54:08.837Z,100202.56
2019-03-28T01:56:13.112Z,100208.73
2019-03-28T01:58:17.382Z,100215.72
2019-03-28T02:00:21.729Z,100209.48
2019-03-28T02:02:25.971Z,100204.59
2019-03-28T02:04:30.201Z,100208.83
2019-03-28T02:06:34.481Z,100203.92
2019-03-28T02:08:38.698Z,100201.20
2019-03-28T02:10:42.952Z,100200.05
2019-03-28T02:12:47.208Z,100196.49
2019-03-28T02:14:51.454Z,100207.11
2019-03-28T02:16:55.730Z,100195.19
2019-03-28T02:18:59.978Z,100197.14
2019-03-28T02:21:04.242Z,100195.64
2019-03-28T02:23:08.467Z,100206.84
2019-03-28T02:25:12.992Z,100199.78
2019-03-28T02:27:23.984Z,100205.59
2019-03-28T02:29:23.274Z,100210.62
2019-03-28T02:31:27.837Z,100206.84
2019-03-28T02:33:32.225Z,100205.48
2019-03-28T02:35:37.503Z,100206.19
2019-03-28T02:37:41.801Z,100208.53
2019-03-28T02:39:46.037Z,100209.69
2019-03-28T02:41:50.345Z,100207.23
2019-03-28T02:43:55.426Z,100212.02
2019-03-28T02:45:59.770Z,100205.66
2019-03-28T02:48:04.098Z,100205.03
2019-03-28T02:50:08.445Z,100207.80
2019-03-28T02:52:12.690Z,100216.98
2019-03-28T02:54:16.940Z,100206.20
2019-03-28T02:56:21.325Z,100210.97
2019-03-28T02:58:25.565Z,100213.28
2019-03-28T03:00:29.877Z,100214.92
2019-03-28T03:02:34.244Z,100212.50
2019-03-28T03:04:38.513Z,100216.16
2019-03-28T03:06:42.763Z,100215.80
2019-03-28T03:08:47.006Z,100224.86
2019-03-28T03:10:51.244Z,100219.73
2019-03-28T03:12:55.517Z,100230.42
2019-03-28T03:14:59.775Z,100218.80
2019-03-28T03:17:04.075Z,100225.92
2019-03-28T03:19:08.570Z,100224.42
2019-03-28T03:21:12.904Z,100222.27
2019-03-28T03:23:17.265Z,100219.58
2019-03-28T03:25:21.546Z,100216.42
2019-03-28T03:27:25.812Z,100221.18
2019-03-28T03:29:30.871Z,100219.14
2019-03-28T03:31:35.209Z,100212.91
2019-03-28T03:33:39.465Z,100213.56
2019-03-28T03:35:43.784Z,100215.23
2019-03-28T03:37:48.025Z,100217.63
2019-03-28T03:39:52.262Z,100218.47
2019-03-28T03:41:56.517Z,100218.64
2019-03-28T03:44:00.764Z,100216.63
2019-03-28T03:46:05.260Z,100222.70
2019-03-28T03:48:09.503Z,100227.80
2019-03-28T03:50:22.443Z,100228.81
2019-03-28T03:52:26.827Z,100231.17
2019-03-28T03:54:31.072Z,100223.45
2019-03-28T03:56:35.409Z,100229.67
2019-03-28T03:58:39.813Z,100226.66
2019-03-28T04:00:44.183Z,100226.31
2019-03-28T04:02:48.458Z,100224.31
2019-03-28T04:04:56.371Z,100225.81
2019-03-28T04:06:58.667Z,100230.36
2019-03-28T04:09:02.972Z,100222.39
2019-03-28T04:11:07.289Z,100218.33
2019-03-28T04:13:11.534Z,100222.74
2019-03-28T04:15:15.781Z,100224.65
2019-03-28T04:17:20.048Z,100220.91
2019-03-28T04:19:24.318Z,100215.83
2019-03-28T04:21:28.590Z,100214.83
2019-03-28T04:23:32.859Z,100220.80
2019-03-28T04:25:37.187Z,100219.30
2019-03-28T04:27:41.415Z,100218.45
2019-03-28T04:29:46.235Z,100219.45
2019-03-28T04:31:50.557Z,100228.13
2019-03-28T04:33:54.806Z,100229.33
2019-03-28T04:35:59.115Z,100232.69
2019-03-28T04:38:03.378Z,100234.88
2019-03-28T04:40:08.776Z,100231.98
2019-03-28T04:42:13.306Z,100237.05
2019-03-28T04:44:17.580Z,100239.10
2019-03-28T04:46:21.847Z,100241.50
2019-03-28T04:48:26.141Z,100241.70
2019-03-28T04:50:30.443Z,100245.61
2019-03-28T04:52:34.676Z,100247.98
2019-03-28T04:54:38.950Z,100245.97
2019-03-28T04:56:43.204Z,100249.02
2019-03-28T04:58:47.433Z,100249.02
2019-03-28T05:00:51.715Z,100248.33
2019-03-28T05:02:56.149Z,100249.33
2019-03-28T05:05:00.418Z,100246.77
2019-03-28T05:07:04.606Z,100247.27
2019-03-28T05:09:08.852Z,100245.72
2019-03-28T05:11:13.109Z,100252.33
2019-03-28T05:13:17.365Z,100258.86
2019-03-28T05:15:21.893Z,100264.07
2019-03-28T05:17:26.125Z,100255.94
2019-03-28T05:19:30.390Z,100251.63
2019-03-28T05:21:34.722Z,100253.14
2019-03-28T05:23:39.039Z,100258.54
2019-03-28T05:25:43.787Z,100252.62
2019-03-28T05:27:48.496Z,100265.96
2019-03-28T05:29:53.680Z,100265.62
2019-03-28T05:31:58.030Z,100269.02
2019-03-28T05:34:02.271Z,100269.16
2019-03-28T05:36:06.602Z,100264.56
2019-03-28T05:38:10.858Z,100272.03
2019-03-28T05:40:15.271Z,100270.53
2019-03-28T05:42:19.541Z,100277.30
2019-03-28T05:44:23.781Z,100283.22
2019-03-28T05:46:28.066Z,100282.02
2019-03-28T05:48:32.311Z,100283.81
2019-03-28T05:50:36.570Z,100283.61
2019-03-28T05:52:40.886Z,100282.73
2019-03-28T05:54:45.140Z,100277.81
2019-03-28T05:56:49.417Z,100284.73
2019-03-28T05:58:54.241Z,100284.17
2019-03-28T06:00:58.681Z,100286.67
2019-03-28T06:03:02.952Z,100286.42
2019-03-28T06:05:07.404Z,100291.83
2019-03-28T06:07:11.647Z,100288.19
2019-03-28T06:09:15.892Z,100282.50
2019-03-28T06:11:20.128Z,100283.01
2019-03-28T06:13:24.504Z,100285.05
2019-03-28T06:15:28.749Z,100279.27
2019-03-28T06:17:33.062Z,100281.85
2019-03-28T06:19:38.342Z,100285.42
2019-03-28T06:21:42.643Z,100293.33
2019-03-28T06:23:46.870Z,100295.80
2019-03-28T06:25:51.124Z,100291.02
2019-03-28T06:27:55.384Z,100293.02
2019-03-28T06:30:02.057Z,100288.91
2019-03-28T06:32:05.656Z,100297.84
2019-03-28T06:34:09.902Z,100295.73
2019-03-28T06:36:14.421Z,100292.83
2019-03-28T06:38:18.728Z,100293.75
2019-03-28T06:40:22.996Z,100297.41
2019-03-28T06:42:27.361Z,100298.73
2019-03-28T06:44:31.625Z,100296.60
2019-03-28T06:46:35.880Z,100293.58
2019-03-28T06:48:40.143Z,100297.59
2019-03-28T06:50:44.412Z,100306.71
2019-03-28T06:52:48.672Z,100304.77
2019-03-28T06:54:53.098Z,100298.92
2019-03-28T06:56:57.340Z,100303.05
2019-03-28T06:59:01.589Z,100298.44
2019-03-28T07:01:05.952Z,100292.09
2019-03-28T07:03:10.213Z,100304.02
2019-03-28T07:05:14.591Z,100299.66
2019-03-28T07:07:18.836Z,100305.02
2019-03-28T07:09:23.121Z,100304.30
2019-03-28T07:11:28.454Z,100298.43
2019-03-28T07:13:32.662Z,100299.80
2019-03-28T07:15:39.042Z,100300.55
2019-03-28T07:17:43.367Z,100298.94
2019-03-28T07:19:47.619Z,100296.52
2019-03-28T07:21:51.885Z,100301.76
2019-03-28T07:23:56.127Z,100302.28
2019-03-28T07:26:01.415Z,100302.47
2019-03-28T07:28:06.561Z,100305.30
2019-03-28T07:30:12.609Z,100300.22
2019-03-28T07:32:16.930Z,100303.31
2019-03-28T07:34:21.180Z,100300.47
2019-03-28T07:36:25.435Z,100300.98
2019-03-28T07:38:29.758Z,100300.88
2019-03-28T07:40:34.011Z,100304.16
2019-03-28T07:42:38.260Z,100302.17
2019-03-28T07:44:42.499Z,100301.91
2019-03-28T07:46:47.766Z,100294.58
2019-03-28T07:48:52.109Z,100291.23
2019-03-28T07:50:56.360Z,100287.70
2019-03-28T07:53:00.611Z,100285.20
2019-03-28T07:55:05.699Z,100289.11
2019-03-28T07:57:10.123Z,100285.86
2019-03-28T07:59:14.440Z,100279.95
2019-03-28T08:01:18.690Z,100282.11
2019-03-28T08:03:22.934Z,100286.30
2019-03-28T08:05:27.200Z,100287.80
2019-03-28T08:07:43.934Z,100285.73
2019-03-28T08:09:37.717Z,100284.06
2019-03-28T08:11:42.245Z,100292.48
2019-03-28T08:13:46.482Z,100301.50
2019-03-28T08:15:50.744Z,100301.12
2019-03-28T08:17:54.995Z,100301.97
2019-03-28T08:19:59.235Z,100302.01
2019-03-28T08:22:03.508Z,100298.50
2019-03-28T08:24:07.918Z,100301.16
2019-03-28T08:26:13.205Z,100305.32
2019-03-28T08:28:17.456Z,100300.23
2019-03-28T08:30:33.867Z,100293.95
2019-03-28T08:32:39.829Z,100304.80
2019-03-28T08:34:44.768Z,100301.40
2019-03-28T08:36:50.974Z,100296.92
2019-03-28T08:38:56.699Z,100290.27
2019-03-28T08:41:00.942Z,100293.92
2019-03-28T08:43:06.335Z,100289.77
2019-03-28T08:45:10.874Z,100292.28
2019-03-28T08:47:15.135Z,100290.81
2019-03-28T08:49:19.371Z,100289.66
2019-03-28T08:51:23.622Z,100299.65
2019-03-28T08:53:27.933Z,100299.38
2019-03-28T08:55:32.252Z,100296.11
2019-03-28T08:57:36.506Z,100299.53
2019-03-28T08:59:43.801Z,100290.13
2019-03-28T09:01:48.064Z,100295.19
2019-03-28T09:03:52.311Z,100295.44
2019-03-28T09:05:57.101Z,100291.20
2019-03-28T09:08:01.411Z,100297.75
2019-03-28T09:10:06.158Z,100291.22
2019-03-28T09:12:10.416Z,100293.84
2019-03-28T09:14:14.750Z,100293.58
2019-03-28T09:16:19.132Z,100291.15
2019-03-28T09:18:32.544Z,100288.47
2019-03-28T09:20:36.782Z,100285.73
2019-03-28T09:22:41.046Z,100285.70
2019-03-28T09:24:45.307Z,100285.84
2019-03-28T09:26:49.534Z,100289.05
2019-03-28T09:28:55.501Z,100287.64
2019-03-28T09:30:59.836Z,100280.52
2019-03-28T09:33:04.464Z,100283.47
2019-03-28T09:35:10.351Z,100283.87
2019-03-28T09:37:14.740Z,100281.59
2019-03-28T09:39:18.991Z,100282.36
2019-03-28T09:41:23.242Z,100277.39
2019-03-28T09:43:27.499Z,100278.53
2019-03-28T09:45:31.911Z,100282.55
2019-03-28T09:47:36.171Z,100274.69
2019-03-28T09:49:40.418Z,100277.83
2019-03-28T09:51:44.749Z,100274.39
2019-03-28T09:53:49.037Z,100270.23
2019-03-28T09:55:53.289Z,100265.95
2019-03-28T09:57:57.704Z,100262.44
2019-03-28T10:00:01.953Z,100262.17
2019-03-28T10:02:06.372Z,100265.66
2019-03-28T10:04:10.650Z,100248.93
2019-03-28T10:06:14.982Z,100254.72
2019-03-28T10:08:19.314Z,100252.53
2019-03-28T10:10:23.652Z,100247.48
2019-03-28T10:12:27.996Z,100247.86
2019-03-28T10:14:32.246Z,100250.21
2019-03-28T10:16:40.172Z,100252.88
2019-03-28T10:18:43.051Z,100244.44
2019-03-28T10:20:47.330Z,100246.05
2019-03-28T10:22:51.606Z,100251.98
2019-03-28T10:24:55.844Z,100256.86
2019-03-28T10:27:00.173Z,100252.87
2019-03-28T10:29:04.622Z,100247.17
2019-03-28T10:31:16.348Z,100244.61
2019-03-28T10:33:14.975Z,100251.11
2019-03-28T10:35:28.798Z,100246.16
2019-03-28T10:37:33.074Z,100244.81
2019-03-28T10:39:39.425Z,100243.96
2019-03-28T10:41:43.736Z,100245.88
2019-03-28T10:43:48.186Z,100248.91
2019-03-28T10:45:52.585Z,100243.66
2019-03-28T10:47:56.890Z,100243.92
2019-03-28T10:50:04.006Z,100243.36
2019-03-28T10:52:07.272Z,100243.34
2019-03-28T10:54:20.072Z,100243.81
2019-03-28T10:56:21.996Z,100246.74
2019-03-28T10:58:24.654Z,100241.63
2019-03-28T11:00:32.473Z,100242.19
2019-03-28T11:02:36.777Z,100239.80
2019-03-28T11:04:41.155Z,100241.45
2019-03-28T11:06:45.432Z,100234.31
2019-03-28T11:08:49.780Z,100235.47
2019-03-28T11:10:54.144Z,100240.47
2019-03-28T11:12:58.578Z,100238.36
2019-03-28T11:15:02.961Z,100232.61
2019-03-28T11:17:07.337Z,100230.05
2019-03-28T11:19:11.711Z,100224.53
2019-03-28T11:21:16.160Z,100230.15
2019-03-28T11:23:20.500Z,100225.37
2019-03-28T11:25:25.201Z,100228.34
2019-03-28T11:27:29.520Z,100225.00
2019-03-28T11:29:34.013Z,100225.12
2019-03-28T11:31:46.155Z,100225.11
2019-03-28T11:33:44.288Z,100233.25
2019-03-28T11:35:48.563Z,100230.01
2019-03-28T11:37:52.939Z,100234.55
2019-03-28T11:39:57.285Z,100236.22
2019-03-28T11:42:02.072Z,100233.13
2019-03-28T11:44:06.530Z,100228.61
2019-03-28T11:46:10.834Z,100232.45
2019-03-28T11:48:15.223Z,100240.12
2019-03-28T11:50:19.711Z,100225.67
2019-03-28T11:52:24.072Z,100231.18
2019-03-28T11:54:28.365Z,100220.96
2019-03-28T11:56:32.655Z,100220.09
2019-03-28T11:58:37.043Z,100225.95
2019-03-28T12:00:41.416Z,100224.31
2019-03-28T12:02:45.749Z,100214.36
2019-03-28T12:04:50.145Z,100217.69
2019-03-28T12:06:54.518Z,100214.86
2019-03-28T12:08:58.849Z,100220.89
2019-03-28T12:11:03.161Z,100217.23
2019-03-28T12:13:07.467Z,100226.50
2019-03-28T12:15:12.460Z,100220.63
2019-03-28T12:17:16.749Z,100219.33
2019-03-28T12:19:21.055Z,100216.72
2019-03-28T12:21:25.424Z,100214.95
2019-03-28T12:23:30.657Z,100216.81
2019-03-28T12:25:35.396Z,100212.25
2019-03-28T12:27:39.795Z,100208.88
2019-03-28T12:29:44.166Z,100209.66
2019-03-28T12:31:48.462Z,100204.25
2019-03-28T12:33:52.811Z,100207.98
2019-03-28T12:35:57.126Z,100204.91
2019-03-28T12:38:02.055Z,100213.09
2019-03-28T12:40:07.650Z,100206.89
2019-03-28T12:42:12.104Z,100202.56
2019-03-28T12:44:16.465Z,100205.59
2019-03-28T12:46:20.822Z,100209.66
2019-03-28T12:48:25.135Z,100204.84
2019-03-28T12:50:29.508Z,100203.13
2019-03-28T12:52:33.790Z,100199.98
2019-03-28T12:54:38.113Z,100194.62
2019-03-28T12:56:42.477Z,100194.50
2019-03-28T12:58:46.767Z,100195.41
2019-03-28T13:00:51.067Z,100199.13
2019-03-28T13:02:55.359Z,100205.81
2019-03-28T13:04:59.650Z,100192.83
2019-03-28T13:07:04.034Z,100197.27
2019-03-28T13:09:10.180Z,100200.48
2019-03-28T13:11:14.857Z,100199.84
2019-03-28T13:13:19.162Z,100199.77
2019-03-28T13:15:23.513Z,100195.41
2019-03-28T13:17:27.833Z,100194.76
2019-03-28T13:19:32.187Z,100195.33
2019-03-28T13:21:36.475Z,100191.64
2019-03-28T13:23:40.781Z,100190.27
2019-03-28T13:25:45.057Z,100193.56
2019-03-28T13:27:49.353Z,100182.28
2019-03-28T13:29:55.085Z,100180.69
2019-03-28T13:31:59.433Z,100175.52
2019-03-28T13:34:03.824Z,100169.55
2019-03-28T13:36:08.096Z,100175.22
2019-03-28T13:38:12.415Z,100175.53
2019-03-28T13:40:16.883Z,100170.38
2019-03-28T13:42:23.507Z,100173.50
2019-03-28T13:44:30.110Z,100170.81
2019-03-28T13:46:33.216Z,100170.53
2019-03-28T13:48:37.508Z,100163.88
2019-03-28T13:50:41.798Z,100159.53
2019-03-28T13:52:46.091Z,100156.73
2019-03-28T13:54:52.954Z,100157.22
2019-03-28T13:56:56.404Z,100159.98
2019-03-28T13:59:00.708Z,100163.36
2019-03-28T14:01:05.097Z,100157.39
2019-03-28T14:03:09.395Z,100159.94
2019-03-28T14:05:13.866Z,100160.56
2019-03-28T14:07:18.169Z,100166.66
2019-03-28T14:09:23.491Z,100166.35
2019-03-28T14:11:27.977Z,100164.69
2019-03-28T14:13:32.336Z,100172.66
2019-03-28T14:15:36.647Z,100173.45
2019-03-28T14:17:40.947Z,100169.54
2019-03-28T14:19:45.226Z,100157.17
2019-03-28T14:21:49.576Z,100156.16
2019-03-28T14:23:53.862Z,100153.98
2019-03-28T14:25:58.164Z,100152.22
2019-03-28T14:28:02.457Z,100159.64
2019-03-28T14:30:09.727Z,100152.73
2019-03-28T14:32:14.182Z,100150.00
2019-03-28T14:34:18.475Z,100148.96
2019-03-28T14:36:25.228Z,100146.22
2019-03-28T14:38:28.785Z,100146.23
2019-03-28T14:40:33.086Z,100143.50
2019-03-28T14:42:37.468Z,100147.09
2019-03-28T14:44:41.775Z,100146.83
2019-03-28T14:46:46.066Z,100152.06
2019-03-28T14:48:50.378Z,100148.16
2019-03-28T14:50:55.870Z,100150.27
2019-03-28T14:53:00.157Z,100156.55
2019-03-28T14:55:04.791Z,100163.60
2019-03-28T14:57:09.817Z,100159.06
2019-03-28T14:59:15.362Z,100159.67
2019-03-28T15:01:19.659Z,100158.87
2019-03-28T15:03:26.928Z,100160.61
2019-03-28T15:05:31.117Z,100160.50
2019-03-28T15:07:35.425Z,100161.52
2019-03-28T15:09:39.815Z,100156.52
2019-03-28T15:11:44.096Z,100157.89
2019-03-28T15:13:48.409Z,100154.30
2019-03-28T15:15:52.781Z,100158.16
2019-03-28T15:17:57.169Z,100152.89
2019-03-28T15:20:01.635Z,100148.09
2019-03-28T15:22:06.130Z,100145.72
2019-03-28T15:24:10.408Z,100143.44
2019-03-28T15:26:14.690Z,100143.40
2019-03-28T15:28:18.971Z,100147.50
2019-03-28T15:30:23.272Z,100148.55
2019-03-28T15:32:27.546Z,100145.19
2019-03-28T15:34:31.859Z,100140.92
2019-03-28T15:36:36.149Z,100140.31
2019-03-28T15:38:40.534Z,100148.54
2019-03-28T15:40:44.939Z,100152.77
2019-03-28T15:42:49.303Z,100151.54
2019-03-28T15:44:53.584Z,100160.30
2019-03-28T15:46:57.871Z,100160.76
2019-03-28T15:49:02.225Z,100161.09
2019-03-28T15:51:06.654Z,100159.33
2019-03-28T15:53:10.946Z,100165.22
2019-03-28T15:55:15.246Z,100160.34
2019-03-28T15:57:19.605Z,100162.37
2019-03-28T15:59:23.891Z,100159.53
2019-03-28T16:01:28.325Z,100159.72
2019-03-28T16:03:32.654Z,100160.95
2019-03-28T16:05:37.127Z,100163.39
2019-03-28T16:07:41.481Z,100161.12
2019-03-28T16:09:46.660Z,100159.40
2019-03-28T16:12:02.088Z,100158.86
2019-03-28T16:13:57.074Z,100161.41
2019-03-28T16:16:02.638Z,100155.14
2019-03-28T16:18:06.932Z,100156.25
2019-03-28T16:20:11.872Z,100160.64
2019-03-28T16:22:16.180Z,100160.86
2019-03-28T16:24:20.463Z,100162.20
2019-03-28T16:26:24.771Z,100159.40
2019-03-28T16:28:29.053Z,100156.02
2019-03-28T16:30:37.812Z,100163.87
2019-03-28T16:32:42.116Z,100164.92
2019-03-28T16:34:46.474Z,100160.44
2019-03-28T16:36:50.864Z,100159.27
2019-03-28T16:38:55.184Z,100154.00
2019-03-28T16:40:59.489Z,100158.13
2019-03-28T16:43:03.857Z,100162.81
2019-03-28T16:45:08.687Z,100154.84
2019-03-28T16:47:12.976Z,100154.00
2019-03-28T16:49:17.264Z,100152.63
2019-03-28T16:51:21.649Z,100156.52
2019-03-28T16:53:25.936Z,100159.27
2019-03-28T16:55:30.294Z,100163.09
2019-03-28T16:57:34.611Z,100160.02
2019-03-28T16:59:38.900Z,100164.04
2019-03-28T17:01:43.364Z,100161.72
2019-03-28T17:03:47.682Z,100168.77
2019-03-28T17:05:51.982Z,100164.85
2019-03-28T17:07:56.519Z,100167.02
2019-03-28T17:10:01.569Z,100163.59
2019-03-28T17:12:06.102Z,100164.25
2019-03-28T17:14:10.486Z,100173.23
2019-03-28T17:16:15.158Z,100174.55
2019-03-28T17:18:19.614Z,100173.42
2019-03-28T17:20:23.912Z,100176.93
2019-03-28T17:22:28.205Z,100166.98
2019-03-28T17:24:32.507Z,100169.89
2019-03-28T17:26:36.802Z,100174.27
2019-03-28T17:28:41.108Z,100172.53
2019-03-28T17:30:45.579Z,100173.63
2019-03-28T17:32:49.868Z,100175.48
2019-03-28T17:34:54.152Z,100174.30
2019-03-28T17:36:58.455Z,100173.09
2019-03-28T17:39:02.931Z,100175.78
2019-03-28T17:41:07.266Z,100177.62
2019-03-28T17:43:11.833Z,100180.38
2019-03-28T17:45:16.230Z,100177.34
2019-03-28T17:47:20.530Z,100185.81
2019-03-28T17:49:25.905Z,100181.88
2019-03-28T17:51:30.306Z,100183.51
2019-03-28T17:53:34.661Z,100178.18
2019-03-28T17:55:39.037Z,100177.84
2019-03-28T17:57:43.355Z,100179.69
2019-03-28T17:59:47.628Z,100181.72
2019-03-28T18:01:52.812Z,100187.02
2019-03-28T18:03:57.106Z,100191.83
2019-03-28T18:06:01.380Z,100185.41
2019-03-28T18:08:05.742Z,100191.30
2019-03-28T18:10:10.420Z,100199.94
2019-03-28T18:12:15.322Z,100200.58
2019-03-28T18:14:19.610Z,100196.23
2019-03-28T18:16:23.909Z,100208.14
2019-03-28T18:18:28.207Z,100211.59
2019-03-28T18:20:32.653Z,100216.41
2019-03-28T18:22:36.979Z,100220.73
2019-03-28T18:24:41.827Z,100216.63
2019-03-28T18:26:46.141Z,100226.22
2019-03-28T18:28:50.440Z,100225.09
2019-03-28T18:30:54.787Z,100232.48
2019-03-28T18:32:59.245Z,100232.73
2019-03-28T18:35:05.576Z,100233.47
2019-03-28T18:37:09.866Z,100232.59
2019-03-28T18:39:14.161Z,100235.86
2019-03-28T18:41:18.440Z,100242.64
2019-03-28T18:43:23.673Z,100242.11
2019-03-28T18:45:28.008Z,100244.78
2019-03-28T18:47:32.316Z,100250.94
2019-03-28T18:49:36.610Z,100248.55
2019-03-28T18:51:40.902Z,100252.97
2019-03-28T18:53:45.185Z,100254.64
2019-03-28T18:55:49.504Z,100256.63
2019-03-28T18:57:53.810Z,100251.98
2019-03-28T18:59:59.276Z,100253.20
2019-03-28T19:02:03.914Z,100257.16
2019-03-28T19:04:08.198Z,100261.11
2019-03-28T19:06:14.918Z,100255.48
2019-03-28T19:08:18.704Z,100252.06
2019-03-28T19:10:23.087Z,100254.64
2019-03-28T19:12:27.383Z,100252.27
2019-03-28T19:14:31.999Z,100261.77
2019-03-28T19:16:36.333Z,100265.28
2019-03-28T19:18:40.634Z,100263.30
2019-03-28T19:20:44.917Z,100264.35
2019-03-28T19:22:50.321Z,100268.78
2019-03-28T19:24:54.675Z,100264.06
2019-03-28T19:26:59.140Z,100262.98
2019-03-28T19:29:03.552Z,100269.70
2019-03-28T19:31:07.926Z,100269.14
2019-03-28T19:33:12.303Z,100270.59
2019-03-28T19:35:16.686Z,100264.31
2019-03-28T19:37:23.954Z,100268.41
2019-03-28T19:39:31.025Z,100257.14
2019-03-28T19:41:35.315Z,100251.34
2019-03-28T19:43:39.979Z,100253.80
2019-03-28T19:45:45.293Z,100248.84
2019-03-28T19:47:49.592Z,100257.83
2019-03-28T19:49:53.905Z,100256.14
2019-03-28T19:51:58.193Z,100255.30
2019-03-28T19:54:02.569Z,100261.13
2019-03-28T19:56:06.862Z,100264.08
2019-03-28T19:58:13.517Z,100265.97
2019-03-28T20:00:18.032Z,100264.61
2019-03-28T20:02:22.420Z,100258.23
2019-03-28T20:04:26.842Z,100263.08
2019-03-28T20:06:33.242Z,100259.52
2019-03-28T20:08:37.544Z,100261.70
2019-03-28T20:10:41.929Z,100257.84
2019-03-28T20:12:46.206Z,100260.58
2019-03-28T20:14:50.540Z,100263.84
2019-03-28T20:16:54.824Z,100264.91
2019-03-28T20:18:59.187Z,100258.52
2019-03-28T20:21:03.486Z,100257.59
2019-03-28T20:23:07.940Z,100249.30
2019-03-28T20:25:12.422Z,100248.13
2019-03-28T20:27:16.706Z,100249.42
2019-03-28T20:29:21.010Z,100256.27
2019-03-28T20:31:25.820Z,100254.81
2019-03-28T20:33:30.185Z,100250.02
2019-03-28T20:35:34.526Z,100249.48
2019-03-28T20:37:38.868Z,100251.03
2019-03-28T20:39:43.179Z,100253.33
2019-03-28T20:41:47.469Z,100250.86
2019-03-28T20:43:52.358Z,100258.28
2019-03-28T20:45:57.301Z,100253.83
2019-03-28T20:48:01.615Z,100255.13
2019-03-28T20:50:06.724Z,100257.58
2019-03-28T20:52:11.016Z,100260.80
2019-03-28T20:54:15.314Z,100253.83
2019-03-28T20:56:20.785Z,100258.59
2019-03-28T20:58:25.080Z,100261.43
2019-03-28T21:00:39.123Z,100262.12
2019-03-28T21:02:43.622Z,100265.38
2019-03-28T21:04:48.077Z,100269.73
2019-03-28T21:06:53.648Z,100262.90
2019-03-28T21:08:58.099Z,100270.27
2019-03-28T21:11:02.398Z,100268.50
2019-03-28T21:13:07.692Z,100273.66
2019-03-28T21:15:12.054Z,100279.03
2019-03-28T21:17:16.332Z,100275.77
2019-03-28T21:19:20.644Z,100276.93
2019-03-28T21:21:26.931Z,100275.66
2019-03-28T21:23:31.225Z,100269.50
2019-03-28T21:25:35.473Z,100267.05
2019-03-28T21:27:39.785Z,100271.26
2019-03-28T21:29:49.193Z,100262.72
2019-03-28T21:31:51.310Z,100258.86
2019-03-28T21:33:56.085Z,100258.23
2019-03-28T21:36:00.338Z,100259.05
2019-03-28T21:38:04.569Z,100258.31
2019-03-28T21:40:09.110Z,100254.30
2019-03-28T21:42:13.373Z,100254.48
2019-03-28T21:44:17.700Z,100249.84
2019-03-28T21:46:21.968Z,100249.11
2019-03-28T21:48:26.222Z,100258.52
2019-03-28T21:50:30.466Z,100250.13
2019-03-28T21:52:34.783Z,100252.17
2019-03-28T21:54:39.066Z,100245.43
2019-03-28T21:56:43.322Z,100253.70
2019-03-28T21:58:47.577Z,100254.72
2019-03-28T22:00:51.978Z,100254.09
2019-03-28T22:02:56.283Z,100255.34
2019-03-28T22:05:01.549Z,100246.94
2019-03-28T22:07:05.853Z,100244.72
2019-03-28T22:09:10.118Z,100250.77
2019-03-28T22:11:14.446Z,100255.77
2019-03-28T22:13:18.725Z,100253.93
2019-03-28T22:15:22.973Z,100252.73
2019-03-28T22:17:27.321Z,100259.92
2019-03-28T22:19:31.930Z,100257.08
2019-03-28T22:21:36.271Z,100259.67
2019-03-28T22:23:40.963Z,100256.83
2019-03-28T22:25:45.313Z,100256.92
2019-03-28T22:27:49.712Z,100264.89
2019-03-28T22:29:53.995Z,100264.02
2019-03-28T22:31:58.324Z,100260.08
2019-03-28T22:34:02.575Z,100265.73
2019-03-28T22:36:06.818Z,100270.66
2019-03-28T22:38:11.062Z,100265.27
2019-03-28T22:40:15.454Z,100271.81
2019-03-28T22:42:19.716Z,100270.45
2019-03-28T22:44:24.248Z,100267.61
2019-03-28T22:46:29.121Z,100267.70
2019-03-28T22:48:33.432Z,100264.00
2019-03-28T22:50:37.776Z,100273.39
2019-03-28T22:52:42.010Z,100265.36
2019-03-28T22:54:46.249Z,100263.75
2019-03-28T22:56:50.519Z,100263.96
2019-03-28T22:58:54.833Z,100262.55
2019-03-28T23:00:59.226Z,100255.27
2019-03-28T23:03:04.319Z,100256.83
2019-03-28T23:05:09.310Z,100259.42
2019-03-28T23:07:13.915Z,100266.89
2019-03-28T23:09:18.887Z,100263.74
2019-03-28T23:11:23.220Z,100268.84
2019-03-28T23:13:27.464Z,100261.61
2019-03-28T23:15:31.792Z,100258.94
2019-03-28T23:17:36.035Z,100253.08
2019-03-28T23:19:40.286Z,100257.78
2019-03-28T23:21:44.581Z,100258.27
2019-03-28T23:23:48.838Z,100262.55
2019-03-28T23:25:53.080Z,100263.26
2019-03-28T23:27:57.338Z,100261.26
2019-03-28T23:30:02.882Z,100266.42
2019-03-28T23:32:07.200Z,100274.67
2019-03-28T23:34:11.483Z,100273.04
2019-03-28T23:36:15.757Z,100277.66
2019-03-28T23:38:20.193Z,100276.87
2019-03-28T23:40:26.303Z,100276.45
2019-03-28T23:42:30.368Z,100279.74